createdAt,value
2023-01-05T00:00:23.020Z,19.73
2023-01-05T00:02:51.701Z,19.17
2023-01-05T00:05:20.325Z,20.27
2023-01-05T00:07:48.895Z,19.03
2023-01-05T00:10:35.689Z,18.97
2023-01-05T00:13:22.358Z,19.30
2023-01-05T00:16:08.772Z,19.07
2023-01-05T00:18:55.126Z,19.20
2023-01-05T00:21:42.103Z,19.43
2023-01-05T00:24:10.591Z,19.33
2023-01-05T00:26:39.298Z,18.03
2023-01-05T00:29:07.920Z,18.50
2023-01-05T00:31:36.543Z,18.70
2023-01-05T00:34:05.273Z,17.97
2023-01-05T00:36:33.870Z,18.03
2023-01-05T00:39:02.459Z,17.07
2023-01-05T00:41:31.052Z,17.80
2023-01-05T00:43:59.762Z,18.77
2023-01-05T00:46:28.407Z,17.73
2023-01-05T00:48:57.079Z,18.13
2023-01-05T00:51:25.684Z,17.23
2023-01-05T00:53:54.385Z,17.37
2023-01-05T00:56:23.025Z,17.87
2023-01-05T00:58:55.804Z,17.03
2023-01-05T01:01:27.707Z,18.30
2023-01-05T01:03:57.405Z,17.67
2023-01-05T01:06:26.439Z,17.40
2023-01-05T01:08:55.068Z,16.97
2023-01-05T01:11:23.713Z,16.80
2023-01-05T01:13:52.336Z,16.87
2023-01-05T01:16:21.221Z,16.37
2023-01-05T01:18:50.339Z,18.53
2023-01-05T01:21:18.941Z,17.50
2023-01-05T01:23:47.670Z,16.73
2023-01-05T01:26:16.300Z,16.83
2023-01-05T01:28:46.574Z,16.70
2023-01-05T01:31:15.573Z,18.07
2023-01-05T01:33:44.268Z,17.20
2023-01-05T01:36:12.838Z,17.40
2023-01-05T01:38:41.439Z,16.93
2023-01-05T01:41:10.200Z,17.53
2023-01-05T01:43:44.859Z,15.77
2023-01-05T01:46:15.080Z,16.97
2023-01-05T01:48:49.572Z,18.17
2023-01-05T01:51:21.140Z,17.47
2023-01-05T01:53:52.802Z,17.00
2023-01-05T01:56:24.711Z,16.90
2023-01-05T01:58:54.489Z,17.20
2023-01-05T02:01:23.502Z,17.77
2023-01-05T02:03:52.374Z,17.20
2023-01-05T02:06:21.169Z,17.57
2023-01-05T02:08:50.686Z,17.00
2023-01-05T02:11:31.423Z,18.20
2023-01-05T02:14:17.551Z,18.23
2023-01-05T02:17:11.154Z,17.50
2023-01-05T02:19:48.923Z,17.20
2023-01-05T02:22:23.684Z,18.37
2023-01-05T02:25:22.590Z,17.43
2023-01-05T02:28:09.501Z,18.67
2023-01-05T02:31:08.510Z,19.43
2023-01-05T02:33:50.668Z,18.40
2023-01-05T02:36:29.127Z,19.40
2023-01-05T02:39:03.771Z,19.33
2023-01-05T02:41:35.368Z,19.57
2023-01-05T02:44:04.304Z,20.43
2023-01-05T02:46:33.025Z,20.73
2023-01-05T02:49:04.639Z,21.87
2023-01-05T02:51:38.890Z,22.93
2023-01-05T02:54:22.223Z,21.73
2023-01-05T02:56:53.932Z,22.03
2023-01-05T02:59:40.091Z,21.20
2023-01-05T03:02:11.913Z,21.10
2023-01-05T03:04:49.866Z,21.67
2023-01-05T03:07:21.532Z,21.50
2023-01-05T03:09:50.721Z,21.77
2023-01-05T03:12:49.076Z,21.10
2023-01-05T03:15:23.539Z,20.00
2023-01-05T03:17:55.199Z,20.63
2023-01-05T03:20:26.857Z,20.47
2023-01-05T03:23:16.187Z,20.63
2023-01-05T03:26:04.129Z,20.37
2023-01-05T03:28:53.348Z,19.20
2023-01-05T03:32:00.843Z,19.90
2023-01-05T03:34:58.575Z,20.57
2023-01-05T03:37:36.094Z,19.63
2023-01-05T03:40:09.861Z,20.20
2023-01-05T03:42:39.621Z,20.23
2023-01-05T03:45:10.231Z,18.77
2023-01-05T03:47:38.837Z,18.50
2023-01-05T03:50:08.784Z,19.97
2023-01-05T03:52:37.521Z,19.40
2023-01-05T03:55:07.012Z,20.30
2023-01-05T03:57:35.800Z,19.53
2023-01-05T04:00:06.074Z,19.97
2023-01-05T04:02:34.969Z,19.23
2023-01-05T04:05:03.750Z,19.33
2023-01-05T04:07:32.530Z,20.10
2023-01-05T04:10:01.474Z,20.43
2023-01-05T04:12:30.549Z,20.40
2023-01-05T04:14:59.137Z,22.23
2023-01-05T04:17:33.660Z,23.20
2023-01-05T04:20:17.606Z,22.83
2023-01-05T04:22:55.034Z,25.33
2023-01-05T04:25:23.846Z,27.67
2023-01-05T04:27:52.498Z,27.87
2023-01-05T04:30:21.659Z,27.20
2023-01-05T04:32:50.460Z,27.23
2023-01-05T04:35:18.946Z,27.77
2023-01-05T04:37:47.495Z,25.30
2023-01-05T04:40:16.707Z,26.87
2023-01-05T04:43:11.315Z,28.27
2023-01-05T04:48:21.888Z,23.37
2023-01-05T04:50:55.614Z,25.40
2023-01-05T04:53:24.660Z,22.47
2023-01-05T04:55:54.005Z,23.23
2023-01-05T04:58:25.661Z,22.50
2023-01-05T05:00:54.157Z,23.33
2023-01-05T05:03:24.692Z,23.90
2023-01-05T05:05:53.178Z,21.07
2023-01-05T05:08:24.858Z,22.23
2023-01-05T05:10:53.454Z,23.13
2023-01-05T05:13:22.074Z,22.10
2023-01-05T05:15:50.807Z,23.40
2023-01-05T05:18:19.695Z,21.40
2023-01-05T05:20:51.762Z,21.50
2023-01-05T05:23:22.351Z,21.40
2023-01-05T05:25:52.647Z,23.17
2023-01-05T05:28:23.227Z,21.77
2023-01-05T05:30:51.882Z,22.27
2023-01-05T05:33:20.492Z,21.27
2023-01-05T05:35:49.149Z,22.47
2023-01-05T05:38:19.481Z,22.87
2023-01-05T05:40:50.145Z,23.50
2023-01-05T05:43:19.067Z,22.47
2023-01-05T05:45:50.624Z,23.80
2023-01-05T05:48:18.203Z,23.63
2023-01-05T05:50:47.526Z,23.50
2023-01-05T05:53:16.561Z,24.73
2023-01-05T05:55:56.832Z,24.27
2023-01-05T05:58:36.800Z,24.07
2023-01-05T06:01:15.868Z,24.83
2023-01-05T06:03:47.175Z,25.37
2023-01-05T06:06:16.605Z,23.87
2023-01-05T06:08:52.929Z,23.00
2023-01-05T06:11:28.687Z,22.57
2023-01-05T06:14:08.635Z,24.40
2023-01-05T06:16:43.560Z,25.17
2023-01-05T06:19:13.825Z,24.97
2023-01-05T06:21:53.059Z,25.07
2023-01-05T06:24:33.536Z,25.27
2023-01-05T06:27:03.004Z,24.37
2023-01-05T06:29:31.732Z,23.47
2023-01-05T06:32:02.195Z,24.60
2023-01-05T06:34:38.850Z,23.83
2023-01-05T06:37:31.829Z,25.27
2023-01-05T06:40:05.328Z,24.33
2023-01-05T06:42:40.887Z,23.90
2023-01-05T06:45:10.965Z,24.50
2023-01-05T06:47:39.610Z,24.70
2023-01-05T06:50:09.146Z,24.27
2023-01-05T06:52:44.428Z,24.53
2023-01-05T06:55:25.786Z,23.67
2023-01-05T06:58:00.487Z,24.40
2023-01-05T07:00:25.683Z,23.83
2023-01-05T07:02:54.703Z,23.17
2023-01-05T07:05:27.645Z,24.97
2023-01-05T07:08:21.151Z,24.47
2023-01-05T07:14:33.755Z,23.70
2023-01-05T07:17:00.559Z,24.00
2023-01-05T07:19:29.482Z,26.50
2023-01-05T07:25:16.210Z,27.17
2023-01-05T07:27:45.419Z,26.67
2023-01-05T07:30:26.188Z,27.40
2023-01-05T07:33:18.741Z,27.33
2023-01-05T07:42:20.141Z,27.07
2023-01-05T07:45:38.668Z,26.73
2023-01-05T07:47:43.443Z,28.73
2023-01-05T07:50:18.649Z,29.30
2023-01-05T07:52:52.067Z,28.20
2023-01-05T07:55:29.214Z,27.10
2023-01-05T07:58:02.476Z,25.27
2023-01-05T08:00:39.399Z,24.00
2023-01-05T08:03:17.850Z,27.17
2023-01-05T08:05:51.406Z,25.60
2023-01-05T08:08:30.747Z,24.57
2023-01-05T08:11:05.038Z,32.30
2023-01-05T08:13:54.575Z,38.17
2023-01-05T08:16:28.350Z,23.60
2023-01-05T08:18:57.361Z,24.67
2023-01-05T08:21:31.935Z,24.00
2023-01-05T08:24:04.849Z,23.40
2023-01-05T08:26:39.986Z,24.00
2023-01-05T08:29:08.758Z,22.87
2023-01-05T08:31:40.415Z,23.73
2023-01-05T08:34:10.027Z,24.10
2023-01-05T08:36:59.983Z,23.90
2023-01-05T08:39:29.824Z,24.17
2023-01-05T08:42:21.267Z,24.33
2023-01-05T08:45:03.688Z,26.33
2023-01-05T08:47:40.711Z,27.60
2023-01-05T08:50:16.280Z,26.07
2023-01-05T08:52:48.362Z,37.23
2023-01-05T08:55:26.255Z,28.97
2023-01-05T08:58:00.850Z,28.43
2023-01-05T09:00:34.533Z,30.67
2023-01-05T09:06:00.320Z,29.73
2023-01-05T09:08:44.413Z,30.17
2023-01-05T09:11:16.188Z,29.27
2023-01-05T09:13:47.816Z,28.37
2023-01-05T09:16:42.512Z,28.60
2023-01-05T09:18:51.259Z,28.63
2023-01-05T09:21:22.593Z,28.47
2023-01-05T09:23:51.676Z,27.77
2023-01-05T09:26:20.436Z,29.57
2023-01-05T09:28:51.534Z,28.37
2023-01-05T09:31:22.224Z,26.47
2023-01-05T09:33:51.058Z,26.97
2023-01-05T09:36:20.913Z,25.97
2023-01-05T09:38:54.155Z,26.60
2023-01-05T09:41:26.258Z,25.80
2023-01-05T09:43:58.308Z,28.92
2023-01-05T09:46:30.072Z,26.63
2023-01-05T09:49:01.830Z,24.90
2023-01-05T09:51:31.122Z,26.63
2023-01-05T09:54:02.379Z,25.57
2023-01-05T09:59:14.276Z,24.87
2023-01-05T10:01:45.585Z,24.15
2023-01-05T10:04:30.736Z,25.27
2023-01-05T10:07:03.160Z,23.50
2023-01-05T10:09:36.562Z,23.23
2023-01-05T10:12:37.422Z,22.27
2023-01-05T10:15:15.337Z,23.13
2023-01-05T10:17:45.235Z,21.57
2023-01-05T10:20:30.202Z,22.03
2023-01-05T10:23:14.239Z,21.65
2023-01-05T10:25:51.350Z,22.50
2023-01-05T10:28:44.648Z,21.80
2023-01-05T10:31:31.205Z,22.30
2023-01-05T10:34:14.375Z,23.73
2023-01-05T10:37:07.879Z,21.12
2023-01-05T10:39:27.099Z,21.50
2023-01-05T10:41:58.714Z,21.80
2023-01-05T10:44:39.012Z,21.90
2023-01-05T10:47:12.162Z,22.10
2023-01-05T10:49:43.752Z,21.27
2023-01-05T10:52:16.013Z,22.70
2023-01-05T10:54:53.481Z,23.05
2023-01-05T10:57:36.636Z,22.73
2023-01-05T11:00:12.048Z,23.53
2023-01-05T11:02:44.141Z,22.42
2023-01-05T11:05:18.626Z,34.85
2023-01-05T11:07:56.809Z,52.75
2023-01-05T11:10:31.241Z,26.10
2023-01-05T11:13:06.027Z,20.60
2023-01-05T11:15:37.658Z,33.48
2023-01-05T11:18:07.823Z,24.40
2023-01-05T11:20:36.598Z,22.90
2023-01-05T11:23:10.050Z,22.40
2023-01-05T11:28:51.098Z,25.62
2023-01-05T11:31:20.680Z,23.90
2023-01-05T11:33:51.086Z,23.38
2023-01-05T11:36:19.772Z,22.87
2023-01-05T11:38:54.258Z,22.70
2023-01-05T11:41:24.987Z,25.32
2023-01-05T11:43:54.668Z,26.85
2023-01-05T11:46:24.168Z,22.45
2023-01-05T11:48:55.893Z,23.92
2023-01-05T11:51:41.975Z,23.52
2023-01-05T11:54:31.521Z,27.22
2023-01-05T11:57:17.775Z,23.30
2023-01-05T11:59:47.916Z,20.65
2023-01-05T12:02:25.567Z,25.60
2023-01-05T12:05:01.847Z,21.65
2023-01-05T12:07:45.029Z,20.55
2023-01-05T12:10:36.335Z,17.15
2023-01-05T12:13:31.829Z,18.20
2023-01-05T12:16:09.487Z,15.28
2023-01-05T12:18:53.472Z,16.35
2023-01-05T14:25:54.296Z,7.05
2023-01-05T14:32:33.926Z,7.97
2023-01-05T15:17:08.720Z,18.77
2023-01-05T15:23:04.548Z,11.30
2023-01-05T15:26:02.639Z,11.67
2023-01-05T15:31:47.526Z,14.43
2023-01-05T15:34:20.141Z,16.83
2023-01-05T15:36:57.596Z,17.70
2023-01-05T15:39:34.998Z,18.60
2023-01-05T15:42:22.122Z,18.73
2023-01-05T15:44:58.229Z,19.87
2023-01-05T15:47:30.932Z,34.67
2023-01-05T15:50:03.027Z,39.33
2023-01-05T15:52:40.179Z,19.93
2023-01-05T15:55:14.960Z,26.73
2023-01-05T15:57:44.148Z,25.30
2023-01-05T16:00:30.860Z,18.43
2023-01-05T16:03:00.182Z,31.47
2023-01-05T16:05:32.823Z,25.27
2023-01-05T16:08:06.449Z,34.13
2023-01-05T16:10:41.083Z,28.70
2023-01-05T16:13:18.243Z,78.67
2023-01-05T16:15:51.644Z,109.07
2023-01-05T16:18:33.287Z,34.93
2023-01-05T17:26:25.754Z,13.73
2023-01-05T18:07:54.285Z,18.70
2023-01-05T18:11:01.307Z,19.43
2023-01-05T18:31:55.294Z,20.27
2023-01-05T18:34:24.322Z,22.47
2023-01-05T18:37:01.581Z,19.13
2023-01-05T18:39:24.164Z,18.53
2023-01-05T18:41:56.434Z,17.43
2023-01-05T18:44:25.352Z,18.07
2023-01-05T18:47:02.761Z,18.17
2023-01-05T18:53:20.168Z,17.43
2023-01-05T18:55:50.043Z,19.53
2023-01-05T18:58:18.801Z,22.30
2023-01-05T19:00:47.564Z,22.07
2023-01-05T19:03:16.391Z,24.17
2023-01-05T19:05:46.083Z,22.57
2023-01-05T19:08:15.127Z,22.80
2023-01-05T19:10:44.017Z,24.27
2023-01-05T19:13:12.735Z,30.47
2023-01-05T19:15:45.490Z,28.60
2023-01-05T19:18:17.227Z,24.80
2023-01-05T19:30:33.256Z,18.40
2023-01-05T19:49:24.188Z,22.73
2023-01-05T19:52:00.220Z,22.43
2023-01-05T19:55:13.626Z,21.97
2023-01-05T19:58:25.855Z,21.97
2023-01-05T20:00:56.808Z,21.87
2023-01-05T20:24:14.950Z,28.50
2023-01-05T20:26:45.986Z,26.67
2023-01-05T20:29:16.409Z,28.67
2023-01-05T20:37:59.377Z,31.13
2023-01-05T20:40:30.942Z,33.37
2023-01-05T20:42:59.765Z,33.90
2023-01-05T20:45:28.590Z,36.30
2023-01-05T20:47:58.746Z,38.70
2023-01-05T20:50:27.369Z,46.35
2023-01-05T20:52:56.055Z,43.63
2023-01-05T20:55:24.740Z,41.63
2023-01-05T20:57:53.411Z,39.83
2023-01-05T21:22:19.705Z,35.87
2023-01-05T21:24:48.679Z,35.60
2023-01-05T21:50:32.544Z,66.60
2023-01-05T21:53:56.825Z,31.13
2023-01-05T21:56:40.790Z,28.07
2023-01-05T22:02:16.893Z,30.43
2023-01-05T22:46:40.745Z,23.83
2023-01-05T22:49:34.832Z,24.27
2023-01-05T22:52:05.109Z,22.17
2023-01-05T22:54:33.869Z,21.03
2023-01-05T22:57:02.483Z,22.47
2023-01-05T22:59:31.069Z,21.77
2023-01-05T23:01:59.745Z,20.23
2023-01-05T23:04:28.544Z,22.13
2023-01-05T23:06:57.206Z,20.50
2023-01-05T23:09:25.849Z,19.10
2023-01-05T23:11:54.543Z,18.00
2023-01-05T23:14:26.141Z,17.70
2023-01-05T23:16:56.488Z,17.30
2023-01-05T23:19:25.114Z,19.43
2023-01-05T23:21:53.729Z,17.27
2023-01-05T23:24:22.410Z,11.60
2023-01-05T23:26:51.110Z,17.20
2023-01-05T23:29:19.896Z,10.40
2023-01-05T23:31:48.582Z,10.17
2023-01-05T23:34:17.311Z,10.40
2023-01-05T23:36:45.960Z,11.43
2023-01-05T23:39:14.712Z,15.73
2023-01-05T23:41:43.537Z,10.07
2023-01-05T23:44:14.646Z,9.13
2023-01-05T23:46:44.089Z,9.33
2023-01-05T23:49:14.199Z,9.27
2023-01-05T23:51:42.793Z,9.10
2023-01-05T23:54:11.479Z,8.53
2023-01-05T23:56:40.160Z,9.17
2023-01-05T23:59:10.295Z,8.93
